Time;durP1;ratioP1;P1;durP2;ratioP2;P2;SDS_P1;SDS_P2;PMS_P1;PMS_P2;Temp;Humidity;BMP_temperature;BMP_pressure;BME280_temperature;BME280_humidity;BME280_pressure;Samples;Min_cycle;Max_cycle;Signal;HPM_P1;HPM_P2
2023/07/16 00:01:23;;;;;;;6.47;1.90;;;;;;;16.13;100.00;100673.91;10374643;28;20038;-71
2023/07/16 00:06:23;;;;;;;4.97;2.15;;;;;;;16.18;100.00;100664.69;10373557;28;20038;-72
2023/07/16 00:11:24;;;;;;;6.82;2.15;;;;;;;16.15;100.00;100671.66;10355715;28;20480;-70
2023/07/16 00:16:25;;;;;;;8.70;2.13;;;;;;;16.08;100.00;100671.19;10370852;28;20034;-70
2023/07/16 00:21:25;;;;;;;4.75;1.92;;;;;;;15.98;100.00;100671.28;10394445;28;20128;-70
2023/07/16 00:26:26;;;;;;;8.35;1.95;;;;;;;15.86;100.00;100669.78;10405415;28;20041;-70
2023/07/16 00:31:26;;;;;;;6.43;2.15;;;;;;;15.75;100.00;100662.69;10395581;28;20052;-70
2023/07/16 00:36:27;;;;;;;8.32;2.53;;;;;;;15.74;100.00;100678.50;10410536;28;20037;-69
2023/07/16 00:41:28;;;;;;;6.63;2.30;;;;;;;15.71;100.00;100678.25;10412749;28;20059;-70
2023/07/16 00:46:28;;;;;;;4.40;1.80;;;;;;;15.67;100.00;100666.06;10366412;28;20049;-70
2023/07/16 00:51:30;;;;;;;7.35;1.75;;;;;;;15.69;100.00;100674.94;10388900;28;20497;-70
2023/07/16 00:56:30;;;;;;;7.20;1.88;;;;;;;15.68;100.00;100674.09;10395455;28;20037;-70
2023/07/16 01:01:31;;;;;;;10.80;2.15;;;;;;;15.66;100.00;100650.53;10379007;28;20124;-70
2023/07/16 01:06:34;;;;;;;7.32;1.70;;;;;;;15.78;100.00;100644.63;10379732;28;20056;-70
2023/07/16 01:11:35;;;;;;;7.78;1.90;;;;;;;15.73;100.00;100642.72;10337727;28;20540;-70
2023/07/16 01:16:36;;;;;;;8.55;2.50;;;;;;;15.66;100.00;100648.56;10336402;28;20049;-70
2023/07/16 01:22:09;;;;;;;8.20;2.53;;;;;;;15.52;100.00;100645.69;10373395;28;20132;-70
2023/07/16 01:27:52;;;;;;;8.75;1.95;;;;;;;15.56;100.00;100661.75;10354903;28;20640;-71
2023/07/16 01:32:52;;;;;;;8.07;2.45;;;;;;;15.50;100.00;100653.47;10376028;28;20037;-70
2023/07/16 01:37:53;;;;;;;9.20;2.20;;;;;;;15.44;100.00;100662.13;10434593;28;20520;-71
2023/07/16 01:42:53;;;;;;;8.63;2.85;;;;;;;15.37;100.00;100662.47;10414136;28;20033;-70
2023/07/16 01:48:05;;;;;;;4.30;2.60;;;;;;;15.22;100.00;100665.41;10412375;28;20065;-70
2023/07/16 01:53:06;;;;;;;7.97;2.17;;;;;;;15.16;100.00;100655.47;10383827;28;20046;-70
2023/07/16 01:58:07;;;;;;;12.15;3.80;;;;;;;15.21;100.00;100667.31;10401535;28;20049;-69
2023/07/16 02:03:08;;;;;;;7.65;2.05;;;;;;;15.17;100.00;100668.19;10400800;28;20038;-70
2023/07/16 02:08:08;;;;;;;3.55;1.80;;;;;;;15.08;100.00;100665.22;10407635;28;20038;-70
2023/07/16 02:13:09;;;;;;;7.22;2.63;;;;;;;15.16;100.00;100658.25;10367862;28;20079;-71
2023/07/16 02:18:09;;;;;;;7.07;3.17;;;;;;;15.24;100.00;100660.38;10378570;28;20053;-70
2023/07/16 02:23:10;;;;;;;4.72;2.30;;;;;;;15.32;100.00;100655.03;10441514;28;20036;-70
2023/07/16 02:28:10;;;;;;;5.90;2.38;;;;;;;15.46;100.00;100649.63;10441034;28;20041;-70
2023/07/16 02:33:11;;;;;;;6.50;2.83;;;;;;;15.41;100.00;100644.13;10440801;28;20033;-71
2023/07/16 02:38:11;;;;;;;4.85;2.15;;;;;;;15.49;100.00;100649.03;10424817;28;20131;-70
2023/07/16 02:43:12;;;;;;;7.72;2.40;;;;;;;15.52;100.00;100654.00;10426189;28;20037;-70
2023/07/16 02:48:12;;;;;;;6.05;2.72;;;;;;;15.47;100.00;100648.50;10391873;28;20053;-71
2023/07/16 02:53:13;;;;;;;7.57;2.58;;;;;;;15.42;100.00;100651.34;10424885;28;20569;-69
2023/07/16 02:58:14;;;;;;;9.85;3.80;;;;;;;15.38;100.00;100653.03;10424341;28;20116;-70
2023/07/16 03:03:14;;;;;;;7.38;3.10;;;;;;;15.29;100.00;100643.69;10458393;28;20037;-70
2023/07/16 03:08:15;;;;;;;5.25;2.40;;;;;;;15.33;100.00;100655.84;10424010;28;20040;-70
2023/07/16 03:13:15;;;;;;;6.82;2.50;;;;;;;15.28;100.00;100653.13;10406375;28;20072;-71
2023/07/16 03:18:18;;;;;;;4.88;2.60;;;;;;;15.23;100.00;100662.31;10413866;28;20382;-69
2023/07/16 03:23:18;;;;;;;12.38;2.97;;;;;;;15.13;100.00;100656.84;10398897;28;20605;-69
2023/07/16 03:28:19;;;;;;;5.50;2.88;;;;;;;15.13;100.00;100668.78;10415068;28;20057;-70
2023/07/16 03:33:19;;;;;;;6.63;2.63;;;;;;;15.19;100.00;100671.50;10416372;28;20056;-71
2023/07/16 03:38:20;;;;;;;8.52;2.35;;;;;;;15.27;100.00;100662.56;10439811;28;20051;-70
2023/07/16 03:43:20;;;;;;;7.28;2.97;;;;;;;15.31;100.00;100671.94;10423846;28;20055;-69
2023/07/16 03:48:21;;;;;;;8.55;3.08;;;;;;;15.34;100.00;100679.72;10448830;28;20045;-69
2023/07/16 03:53:21;;;;;;;8.60;3.72;;;;;;;15.32;100.00;100681.94;10414068;28;20091;-69
2023/07/16 03:58:22;;;;;;;11.55;3.67;;;;;;;15.28;100.00;100673.38;10415525;28;20037;-69
2023/07/16 04:03:23;;;;;;;9.85;3.67;;;;;;;15.26;100.00;100678.38;10396982;28;20045;-70
2023/07/16 04:08:24;;;;;;;9.82;3.25;;;;;;;15.25;100.00;100686.97;10415489;28;20493;-69
2023/07/16 04:13:24;;;;;;;8.10;3.17;;;;;;;15.24;100.00;100686.16;10414732;28;20037;-69
2023/07/16 04:18:25;;;;;;;9.93;3.83;;;;;;;15.26;100.00;100691.44;10424962;28;20044;-68
2023/07/16 04:23:25;;;;;;;6.30;2.95;;;;;;;15.39;100.00;100689.94;10438169;28;20033;-70
2023/07/16 04:28:26;;;;;;;7.55;3.22;;;;;;;15.43;100.00;100694.59;10438011;28;20106;-70
2023/07/16 04:33:28;;;;;;;8.50;3.38;;;;;;;15.43;100.00;100705.69;10435483;28;20087;-69
2023/07/16 04:38:29;;;;;;;5.82;2.97;;;;;;;15.42;100.00;100706.81;10420303;28;20029;-70
2023/07/16 04:43:29;;;;;;;6.88;3.33;;;;;;;15.44;100.00;100710.13;10414891;28;20049;-69
2023/07/16 04:48:30;;;;;;;19.80;4.40;;;;;;;15.38;100.00;100705.75;10404919;28;20041;-69
2023/07/16 04:53:30;;;;;;;7.28;2.88;;;;;;;15.47;100.00;100717.84;10436903;28;20028;-70
2023/07/16 04:58:30;;;;;;;8.95;3.05;;;;;;;15.58;100.00;100715.00;10435762;28;20041;-69
2023/07/16 05:03:31;;;;;;;10.82;3.20;;;;;;;15.63;100.00;100731.63;10390890;28;20033;-70
2023/07/16 05:08:31;;;;;;;14.88;3.42;;;;;;;15.61;100.00;100718.03;10394949;28;20037;-69
2023/07/16 05:13:32;;;;;;;14.13;3.40;;;;;;;15.64;100.00;100709.09;10395642;28;20084;-69
2023/07/16 05:18:32;;;;;;;11.45;2.50;;;;;;;15.78;100.00;100730.66;10405436;28;20120;-69
2023/07/16 05:23:33;;;;;;;8.05;3.70;;;;;;;15.85;100.00;100729.16;10418541;28;20110;-68
2023/07/16 05:28:33;;;;;;;9.52;3.13;;;;;;;15.97;100.00;100741.84;10452164;28;20055;-69
2023/07/16 05:33:34;;;;;;;13.10;5.40;;;;;;;16.08;100.00;100737.81;10449372;28;20048;-69
2023/07/16 05:38:34;;;;;;;5.40;2.40;;;;;;;16.21;100.00;100747.41;10392935;28;20033;-69
2023/07/16 05:43:35;;;;;;;5.93;2.70;;;;;;;16.26;100.00;100748.16;10412415;28;20033;-68
2023/07/16 05:48:35;;;;;;;7.90;2.80;;;;;;;16.41;100.00;100754.66;10410593;28;20049;-68
2023/07/16 05:53:36;;;;;;;6.78;2.63;;;;;;;16.50;100.00;100772.34;10393783;28;20033;-67
2023/07/16 05:58:36;;;;;;;7.78;3.13;;;;;;;16.45;100.00;100725.97;10393677;28;20033;-69
2023/07/16 06:03:37;;;;;;;6.45;2.33;;;;;;;16.75;100.00;100730.31;10396125;28;20045;-68
2023/07/16 06:08:37;;;;;;;7.18;2.70;;;;;;;17.01;100.00;100757.81;10419208;28;20232;-71
2023/07/16 06:13:38;;;;;;;6.20;2.80;;;;;;;17.18;100.00;100760.06;10435706;28;20040;-69
2023/07/16 06:18:38;;;;;;;7.00;3.00;;;;;;;17.24;100.00;100763.56;10424183;28;20084;-68
2023/07/16 06:23:40;;;;;;;9.25;3.30;;;;;;;17.38;100.00;100774.75;10409497;28;20470;-69
2023/07/16 06:28:40;;;;;;;5.53;2.70;;;;;;;17.46;100.00;100779.66;10393837;28;20030;-69
2023/07/16 06:33:41;;;;;;;10.05;3.05;;;;;;;17.64;100.00;100784.34;10415307;28;20112;-71
2023/07/16 06:38:41;;;;;;;9.85;3.45;;;;;;;17.81;100.00;100782.97;10424034;28;20076;-68
2023/07/16 06:43:42;;;;;;;9.70;3.03;;;;;;;17.76;100.00;100786.66;10461109;28;20067;-68
2023/07/16 06:48:42;;;;;;;8.27;3.45;;;;;;;17.91;100.00;100791.97;10460056;28;20489;-68
2023/07/16 06:53:43;;;;;;;9.45;3.10;;;;;;;18.23;100.00;100806.19;10459491;28;20488;-67
2023/07/16 06:58:43;;;;;;;6.95;2.75;;;;;;;18.49;100.00;100798.97;10457781;28;20048;-71
2023/07/16 07:03:44;;;;;;;8.43;3.03;;;;;;;18.54;100.00;100807.25;10455029;28;20063;-68
2023/07/16 07:08:44;;;;;;;8.50;2.90;;;;;;;18.55;100.00;100808.06;10440983;28;20037;-68
2023/07/16 07:13:44;;;;;;;6.30;2.95;;;;;;;18.44;100.00;100804.66;10457766;28;20042;-68
2023/07/16 07:18:45;;;;;;;7.63;3.10;;;;;;;18.73;100.00;100814.69;10457008;28;20044;-67
2023/07/16 07:23:45;;;;;;;10.07;3.30;;;;;;;19.06;100.00;100818.19;10454641;28;20053;-68
2023/07/16 07:28:46;;;;;;;6.00;2.90;;;;;;;19.05;100.00;100827.66;10455014;28;20041;-67
2023/07/16 07:33:46;;;;;;;8.20;3.13;;;;;;;19.52;100.00;100808.72;10457481;28;20037;-67
2023/07/16 07:38:47;;;;;;;9.48;2.97;;;;;;;19.56;100.00;100814.50;10457117;28;20048;-67
2023/07/16 07:43:47;;;;;;;9.52;3.22;;;;;;;19.59;100.00;100801.88;10454498;28;20041;-67
2023/07/16 07:48:48;;;;;;;5.53;3.00;;;;;;;19.48;100.00;100824.47;10437036;28;20033;-67
2023/07/16 07:53:48;;;;;;;11.40;3.50;;;;;;;19.50;100.00;100821.34;10455839;28;20568;-68
2023/07/16 07:58:49;;;;;;;6.45;3.53;;;;;;;19.47;100.00;100786.53;10455488;28;20137;-65
2023/07/16 08:03:49;;;;;;;9.60;2.90;;;;;;;19.81;100.00;100827.03;10455983;28;20040;-68
2023/07/16 08:08:50;;;;;;;8.32;3.28;;;;;;;19.77;100.00;100837.19;10456835;28;20465;-68
2023/07/16 08:13:50;;;;;;;8.98;2.65;;;;;;;19.54;100.00;100844.72;10437891;28;20042;-68
2023/07/16 08:18:51;;;;;;;9.70;3.50;;;;;;;19.44;100.00;100839.38;10415414;28;20083;-66
2023/07/16 08:23:51;;;;;;;7.75;2.60;;;;;;;19.41;100.00;100846.41;10397357;28;20041;-68
2023/07/16 08:28:52;;;;;;;8.10;3.90;;;;;;;19.52;100.00;100864.56;10412377;28;20109;-68
2023/07/16 08:33:53;;;;;;;7.88;3.50;;;;;;;19.63;100.00;100859.56;10412556;28;20049;-67
2023/07/16 08:38:53;;;;;;;8.52;3.22;;;;;;;19.73;100.00;100858.53;10396584;28;20065;-69
2023/07/16 08:43:54;;;;;;;5.25;2.40;;;;;;;19.91;100.00;100877.06;10412769;28;20045;-68
2023/07/16 08:48:54;;;;;;;8.75;3.33;;;;;;;19.74;100.00;100855.44;10395500;28;20038;-69
2023/07/16 08:53:58;;;;;;;7.47;3.30;;;;;;;20.29;100.00;100865.47;10412196;28;20037;-69
2023/07/16 08:58:59;;;;;;;9.13;3.15;;;;;;;20.36;100.00;100882.63;10413381;28;20061;-68
2023/07/16 09:03:59;;;;;;;5.90;2.55;;;;;;;20.18;100.00;100880.88;10385797;28;20048;-67
2023/07/16 09:09:00;;;;;;;11.02;2.92;;;;;;;20.05;100.00;100870.59;10453649;28;20037;-69
2023/07/16 09:14:03;;;;;;;6.47;2.95;;;;;;;20.12;100.00;100877.38;10435515;28;20044;-68
2023/07/16 09:19:10;;;;;;;8.48;3.17;;;;;;;20.38;100.00;100884.28;10449877;28;20061;-68
2023/07/16 09:24:11;;;;;;;10.23;3.00;;;;;;;20.62;100.00;100878.34;10415693;28;20052;-68
2023/07/16 09:29:11;;;;;;;8.30;3.33;;;;;;;20.66;100.00;100887.75;10434537;28;20040;-68
2023/07/16 09:34:12;;;;;;;7.15;3.13;;;;;;;20.58;100.00;100899.69;10444961;28;20048;-69
2023/07/16 09:39:13;;;;;;;8.88;3.10;;;;;;;20.90;100.00;100898.56;10436450;28;20153;-69
2023/07/16 09:44:14;;;;;;;6.15;3.00;;;;;;;20.64;100.00;100912.41;10397514;28;20067;-68
2023/07/16 09:49:15;;;;;;;8.05;3.30;;;;;;;20.39;100.00;100922.28;10386809;28;20445;-68
2023/07/16 09:54:15;;;;;;;5.97;2.80;;;;;;;20.18;100.00;100928.41;10425228;28;20033;-69
2023/07/16 09:59:17;;;;;;;7.25;3.85;;;;;;;20.08;100.00;100937.84;10416161;28;20056;-69
2023/07/16 10:04:19;;;;;;;6.43;2.92;;;;;;;20.44;100.00;100955.69;10390095;28;20052;-69
2023/07/16 10:09:36;;;;;;;9.13;4.03;;;;;;;20.57;100.00;100960.41;10415631;28;20484;-69
2023/07/16 10:14:58;;;;;;;7.50;3.17;;;;;;;20.92;100.00;100963.41;10406565;28;20085;-69
2023/07/16 10:20:07;;;;;;;6.05;2.60;;;;;;;20.61;100.00;100978.22;10416588;28;20080;-68
2023/07/16 10:25:09;;;;;;;10.93;4.95;;;;;;;20.30;100.00;100978.97;10437762;28;20033;-71
2023/07/16 10:30:10;;;;;;;9.35;3.85;;;;;;;21.24;100.00;100989.38;10454817;28;20044;-69
2023/07/16 10:35:11;;;;;;;8.90;3.00;;;;;;;21.72;100.00;100968.94;10413712;28;20048;-68
2023/07/16 10:40:12;;;;;;;6.28;2.80;;;;;;;21.52;100.00;100973.19;10428064;28;20033;-70
2023/07/16 10:45:13;;;;;;;5.30;3.35;;;;;;;21.23;100.00;100968.13;10405014;28;20100;-69
2023/07/16 10:50:13;;;;;;;7.20;3.15;;;;;;;20.99;100.00;100983.34;10374543;28;20055;-71
2023/07/16 10:55:13;;;;;;;9.32;4.00;;;;;;;21.26;100.00;100975.88;10402114;28;20037;-69
2023/07/16 11:00:14;;;;;;;7.82;3.30;;;;;;;21.10;100.00;100995.09;10422560;28;20045;-69
2023/07/16 11:05:15;;;;;;;6.50;3.85;;;;;;;20.75;100.00;101018.13;10438812;28;20044;-69
2023/07/16 11:10:16;;;;;;;6.03;2.85;;;;;;;21.42;100.00;101002.31;10438372;28;20496;-68
2023/07/16 11:15:16;;;;;;;6.88;3.38;;;;;;;21.70;100.00;101013.25;10457916;28;20035;-69
2023/07/16 11:20:19;;;;;;;7.90;3.67;;;;;;;22.28;100.00;101014.84;10436619;28;20037;-69
2023/07/16 11:25:21;;;;;;;5.00;3.00;;;;;;;22.57;100.00;101024.53;10422678;28;20041;-69
2023/07/16 11:30:23;;;;;;;7.95;3.20;;;;;;;21.93;100.00;101020.41;10424336;28;20148;-70
2023/07/16 11:35:24;;;;;;;9.00;3.22;;;;;;;22.35;100.00;101012.38;10421550;28;20493;-69
2023/07/16 11:40:24;;;;;;;5.50;3.05;;;;;;;21.79;100.00;101039.34;10435841;28;20092;-69
2023/07/16 11:45:29;;;;;;;9.13;3.33;;;;;;;21.68;100.00;101032.38;10454091;28;20041;-69
2023/07/16 11:50:30;;;;;;;7.88;3.35;;;;;;;21.36;100.00;101049.22;10434308;28;20029;-68
2023/07/16 11:55:30;;;;;;;7.43;3.08;;;;;;;21.60;100.00;101038.78;10436965;28;20048;-70
2023/07/16 12:00:31;;;;;;;7.75;2.92;;;;;;;21.40;100.00;101055.00;10446443;28;20141;-69
2023/07/16 12:05:31;;;;;;;6.72;3.22;;;;;;;21.22;100.00;101053.28;10439840;28;20041;-69
2023/07/16 12:10:32;;;;;;;5.80;3.42;;;;;;;20.97;100.00;101058.41;10419456;28;20048;-69
2023/07/16 12:15:33;;;;;;;7.93;3.78;;;;;;;20.87;100.00;101064.28;10453942;28;20041;-71
2023/07/16 12:20:34;;;;;;;8.00;3.28;;;;;;;20.73;100.00;101079.19;10452206;28;20069;-69
2023/07/16 12:25:35;;;;;;;7.00;3.42;;;;;;;20.74;100.00;101075.22;10384074;28;20392;-70
2023/07/16 12:30:35;;;;;;;5.00;2.97;;;;;;;20.88;100.00;101077.97;10454088;28;20051;-68
2023/07/16 12:35:36;;;;;;;5.05;2.88;;;;;;;21.07;100.00;101077.75;10436741;28;20052;-68
2023/07/16 12:40:40;;;;;;;6.78;2.80;;;;;;;21.45;100.00;101079.28;10455718;28;20037;-70
2023/07/16 12:45:40;;;;;;;8.55;3.13;;;;;;;22.51;100.00;101070.75;10420444;28;20608;-69
2023/07/16 12:50:41;;;;;;;8.27;3.03;;;;;;;23.71;100.00;101067.13;10430349;28;20080;-69
2023/07/16 12:55:41;;;;;;;7.20;3.50;;;;;;;22.57;100.00;101072.25;10413892;28;20040;-69
2023/07/16 13:00:42;;;;;;;7.05;2.88;;;;;;;21.17;100.00;101088.66;10413642;28;20040;-70
2023/07/16 13:05:43;;;;;;;6.35;3.30;;;;;;;21.06;100.00;101090.06;10378292;28;20104;-69
2023/07/16 13:10:44;;;;;;;7.32;2.92;;;;;;;21.00;100.00;101096.13;10394710;28;20470;-69
2023/07/16 13:15:45;;;;;;;5.13;2.83;;;;;;;21.13;100.00;101117.63;10378642;28;20033;-70
2023/07/16 13:20:45;;;;;;;7.82;3.50;;;;;;;20.93;100.00;101135.75;10416446;28;20042;-70
2023/07/16 13:25:46;;;;;;;9.75;3.10;;;;;;;21.01;100.00;101131.38;10418303;28;20044;-69
2023/07/16 13:30:46;;;;;;;7.63;3.00;;;;;;;21.04;100.00;101137.16;10448693;28;20044;-68
2023/07/16 13:35:47;;;;;;;7.78;2.97;;;;;;;21.14;100.00;101124.88;10382435;28;20033;-69
2023/07/16 13:40:47;;;;;;;7.45;2.95;;;;;;;21.21;100.00;101146.81;10434479;28;20112;-68
2023/07/16 13:45:48;;;;;;;7.97;3.47;;;;;;;21.31;100.00;101146.53;10418360;28;20037;-67
2023/07/16 13:50:48;;;;;;;6.10;3.42;;;;;;;21.60;100.00;101148.91;10442044;28;20033;-68
2023/07/16 13:55:49;;;;;;;6.47;2.90;;;;;;;21.52;100.00;101153.28;10411715;28;20095;-67
2023/07/16 14:00:49;;;;;;;5.53;2.95;;;;;;;21.50;100.00;101166.78;10444173;28;20043;-67
2023/07/16 14:05:50;;;;;;;5.43;3.08;;;;;;;21.63;100.00;101158.63;10435299;28;20065;-68
2023/07/16 14:10:50;;;;;;;6.35;2.42;;;;;;;21.11;100.00;101131.13;10419207;28;20041;-68
2023/07/16 14:15:51;;;;;;;6.88;2.60;;;;;;;21.22;100.00;101159.69;10384745;28;20059;-68
2023/07/16 14:20:51;;;;;;;6.57;2.60;;;;;;;22.74;100.00;101167.66;10445384;28;20051;-68
2023/07/16 14:25:52;;;;;;;5.90;2.20;;;;;;;24.31;100.00;101135.44;10409933;28;20099;-67
2023/07/16 14:30:53;;;;;;;6.30;1.98;;;;;;;24.84;100.00;101138.72;10415645;28;20464;-69
2023/07/16 14:35:53;;;;;;;3.72;2.28;;;;;;;24.49;100.00;101138.97;10417142;28;20034;-69
2023/07/16 14:40:54;;;;;;;4.43;2.13;;;;;;;24.69;100.00;101135.38;10418145;28;20038;-68
2023/07/16 14:45:54;;;;;;;6.70;2.30;;;;;;;24.32;98.79;101126.69;10418998;28;20622;-68
2023/07/16 14:50:55;;;;;;;4.47;1.63;;;;;;;24.18;100.00;101128.91;10401273;28;20050;-67
2023/07/16 14:55:55;;;;;;;7.63;2.15;;;;;;;25.01;94.08;101034.31;10368136;28;20048;-67
2023/07/16 15:00:58;;;;;;;3.78;1.50;;;;;;;24.24;92.44;101102.25;10367791;28;20038;-68
2023/07/16 15:05:59;;;;;;;7.90;1.65;;;;;;;23.36;96.71;101131.94;10400350;28;20045;-69
2023/07/16 15:10:59;;;;;;;4.85;2.42;;;;;;;22.91;100.00;101133.16;10416264;28;20025;-68
2023/07/16 15:16:00;;;;;;;2.80;1.30;;;;;;;23.22;98.14;101140.56;10420363;28;20036;-67
2023/07/16 15:21:00;;;;;;;5.03;1.73;;;;;;;22.83;98.82;101156.44;10403798;28;20038;-68
2023/07/16 15:26:02;;;;;;;3.40;1.60;;;;;;;22.79;96.95;101144.22;10383275;28;20033;-67
2023/07/16 15:31:03;;;;;;;5.13;1.77;;;;;;;22.99;100.00;101148.34;10399418;28;20076;-69
2023/07/16 15:36:03;;;;;;;4.90;1.60;;;;;;;22.52;100.00;101159.41;10382510;28;20068;-69
2023/07/16 15:41:04;;;;;;;3.65;1.33;;;;;;;22.62;100.00;101156.28;10415950;28;20037;-68
2023/07/16 15:46:04;;;;;;;4.28;1.67;;;;;;;23.17;97.66;101149.16;10413514;28;20040;-67
2023/07/16 15:51:05;;;;;;;6.10;1.60;;;;;;;22.70;100.00;101168.66;10437279;28;20040;-68
2023/07/16 15:56:05;;;;;;;5.22;1.58;;;;;;;22.35;100.00;101168.63;10456881;28;20123;-67
2023/07/16 16:01:06;;;;;;;7.30;2.20;;;;;;;22.10;99.98;101167.38;10450386;28;20033;-67
2023/07/16 16:06:06;;;;;;;5.75;1.35;;;;;;;21.43;100.00;101186.03;10438276;28;20040;-67
2023/07/16 16:11:07;;;;;;;6.25;1.02;;;;;;;21.02;100.00;101206.63;10436745;28;20508;-67
2023/07/16 16:16:07;;;;;;;7.43;1.70;;;;;;;20.86;100.00;101208.97;10455223;28;20029;-67
2023/07/16 16:21:08;;;;;;;7.40;1.45;;;;;;;20.52;100.00;101213.06;10455870;28;20033;-67
2023/07/16 16:26:08;;;;;;;8.85;1.25;;;;;;;20.49;100.00;101224.88;10455811;28;20037;-66
2023/07/16 16:31:09;;;;;;;8.05;1.42;;;;;;;20.34;100.00;101205.66;10435993;28;20041;-67
2023/07/16 16:36:10;;;;;;;8.57;1.77;;;;;;;21.29;100.00;101202.88;10412792;28;20034;-67
2023/07/16 16:41:12;;;;;;;8.57;1.60;;;;;;;22.84;100.00;101188.13;10413911;28;20052;-67
2023/07/16 16:46:13;;;;;;;4.13;1.15;;;;;;;23.64;97.24;101184.91;10391060;28;20042;-68
2023/07/16 16:51:13;;;;;;;4.47;1.30;;;;;;;23.41;96.32;101179.50;10394458;28;20042;-66
2023/07/16 16:56:14;;;;;;;6.22;1.30;;;;;;;22.70;99.94;101185.50;10394476;28;20042;-67
2023/07/16 17:01:15;;;;;;;5.85;1.60;;;;;;;22.13;99.69;101183.53;10395119;28;20092;-68
2023/07/16 17:06:15;;;;;;;6.03;1.30;;;;;;;22.29;100.00;101198.78;10411773;28;20045;-67
2023/07/16 17:11:16;;;;;;;7.20;1.90;;;;;;;22.43;100.00;101195.00;10413411;28;20040;-67
2023/07/16 17:16:16;;;;;;;8.30;1.67;;;;;;;21.95;100.00;101202.25;10412835;28;20037;-67
2023/07/16 17:21:17;;;;;;;6.68;1.33;;;;;;;21.70;100.00;101218.63;10411774;28;20034;-67
2023/07/16 17:26:18;;;;;;;10.85;1.50;;;;;;;21.42;100.00;101208.75;10411959;28;20044;-66
2023/07/16 17:31:18;;;;;;;6.55;1.40;;;;;;;21.30;100.00;101226.13;10394247;28;20117;-67
2023/07/16 17:36:19;;;;;;;9.07;2.00;;;;;;;21.00;100.00;101230.47;10446889;28;20045;-67
2023/07/16 17:41:19;;;;;;;5.72;1.60;;;;;;;20.71;100.00;101228.91;10415920;28;20082;-66
2023/07/16 17:46:19;;;;;;;6.55;1.20;;;;;;;20.47;100.00;101234.72;10433360;28;20068;-66
2023/07/16 17:51:20;;;;;;;9.05;1.92;;;;;;;20.36;100.00;101262.91;10451225;28;20033;-67
2023/07/16 17:56:21;;;;;;;9.48;2.00;;;;;;;20.41;100.00;101259.16;10417187;28;20036;-66
2023/07/16 18:01:21;;;;;;;5.38;1.23;;;;;;;20.32;100.00;101256.28;10449278;28;20037;-66
2023/07/16 18:06:22;;;;;;;6.53;1.33;;;;;;;19.85;100.00;101210.81;10432436;28;20036;-67
2023/07/16 18:11:22;;;;;;;5.78;1.38;;;;;;;20.15;100.00;101247.66;10415788;28;20036;-67
2023/07/16 18:16:23;;;;;;;8.50;1.27;;;;;;;20.27;100.00;101253.56;10450260;28;20037;-68
2023/07/16 18:21:24;;;;;;;5.68;1.23;;;;;;;20.11;100.00;101250.28;10450912;28;20052;-66
2023/07/16 18:26:25;;;;;;;8.93;1.60;;;;;;;19.87;100.00;101250.44;10407164;28;20062;-67
2023/07/16 18:31:25;;;;;;;8.88;1.35;;;;;;;19.62;100.00;101262.88;10401178;28;20037;-67
2023/07/16 18:36:26;;;;;;;8.20;1.58;;;;;;;19.44;100.00;101270.16;10396015;28;1109893;-66
2023/07/16 18:41:26;;;;;;;5.82;1.80;;;;;;;19.21;100.00;101276.69;10459683;28;20033;-66
2023/07/16 18:46:27;;;;;;;8.68;1.60;;;;;;;18.98;100.00;101270.91;10458963;28;20267;-66
2023/07/16 18:51:27;;;;;;;10.13;1.40;;;;;;;18.87;100.00;101269.38;10441319;28;20124;-66
2023/07/16 18:56:28;;;;;;;5.95;1.40;;;;;;;18.80;100.00;101282.88;10459403;28;20058;-67
2023/07/16 19:01:28;;;;;;;6.35;1.58;;;;;;;18.66;100.00;101300.28;10458338;28;20098;-67
2023/07/16 19:06:29;;;;;;;7.32;1.20;;;;;;;18.50;100.00;101308.03;10457311;28;20047;-66
2023/07/16 19:11:30;;;;;;;10.18;2.33;;;;;;;17.77;100.00;101217.13;10397566;28;20045;-67
2023/07/16 19:16:30;;;;;;;7.82;1.48;;;;;;;18.25;100.00;101311.97;10406989;28;20092;-66
2023/07/16 19:21:31;;;;;;;7.70;1.30;;;;;;;18.18;100.00;101308.69;10455997;28;20045;-67
2023/07/16 19:26:31;;;;;;;6.32;1.10;;;;;;;18.02;100.00;101318.31;10422906;28;20051;-66
2023/07/16 19:31:32;;;;;;;12.23;2.63;;;;;;;17.88;100.00;101330.16;10457117;28;20033;-67
2023/07/16 19:36:32;;;;;;;10.70;3.05;;;;;;;17.75;100.00;101333.56;10414742;28;20040;-66
2023/07/16 19:41:33;;;;;;;7.07;1.40;;;;;;;17.62;100.00;101328.69;10398403;28;20033;-66
2023/07/16 19:46:33;;;;;;;7.72;1.35;;;;;;;17.52;100.00;101338.75;10397360;28;20041;-66
2023/07/16 19:51:34;;;;;;;8.40;1.33;;;;;;;17.31;100.00;101340.84;10414994;28;20033;-67
2023/07/16 19:56:34;;;;;;;8.45;1.35;;;;;;;17.04;100.00;101344.09;10414732;28;20034;-66
2023/07/16 20:01:35;;;;;;;9.35;1.50;;;;;;;16.93;100.00;101345.28;10381484;28;20033;-66
2023/07/16 20:06:35;;;;;;;5.93;1.13;;;;;;;16.83;100.00;101357.25;10429828;28;20130;-67
2023/07/16 20:11:36;;;;;;;7.13;1.50;;;;;;;16.69;100.00;101351.44;10412562;28;20037;-66
2023/07/16 20:16:38;;;;;;;7.28;1.63;;;;;;;16.54;100.00;101345.94;10415378;28;20033;-66
2023/07/16 20:21:39;;;;;;;14.32;2.72;;;;;;;16.41;100.00;101354.88;10414310;28;20052;-66
2023/07/16 20:26:40;;;;;;;4.97;1.80;;;;;;;16.36;100.00;101354.88;10397282;28;20096;-66
2023/07/16 20:31:41;;;;;;;8.30;1.48;;;;;;;16.32;100.00;101349.88;10412629;28;20041;-66
2023/07/16 20:36:42;;;;;;;4.53;1.35;;;;;;;16.40;100.00;101344.88;10452820;28;20036;-67
2023/07/16 20:41:43;;;;;;;7.60;2.55;;;;;;;16.38;100.00;101344.31;10420560;28;20040;-67
2023/07/16 20:46:43;;;;;;;10.82;1.65;;;;;;;16.37;100.00;101348.19;10453344;28;20044;-66
2023/07/16 20:51:44;;;;;;;11.07;2.28;;;;;;;16.36;100.00;101360.44;10454295;28;20029;-67
2023/07/16 20:56:44;;;;;;;11.15;1.92;;;;;;;16.38;100.00;101363.78;10436501;28;20025;-66
2023/07/16 21:01:45;;;;;;;8.60;2.10;;;;;;;16.39;100.00;101359.88;10436289;28;20033;-67
2023/07/16 21:06:45;;;;;;;9.07;2.08;;;;;;;16.25;100.00;101349.34;10435334;28;20052;-66
2023/07/16 21:11:46;;;;;;;9.75;2.00;;;;;;;16.22;100.00;101355.47;10434536;28;20100;-66
2023/07/16 21:16:47;;;;;;;8.48;2.47;;;;;;;16.10;100.00;101358.56;10452796;28;20029;-66
2023/07/16 21:21:47;;;;;;;15.43;3.25;;;;;;;16.02;100.00;101366.59;10440630;28;20029;-66
2023/07/16 21:26:48;;;;;;;5.25;1.60;;;;;;;15.91;100.00;101361.03;10452286;28;20041;-66
2023/07/16 21:31:48;;;;;;;9.70;1.67;;;;;;;15.85;100.00;101364.94;10434582;28;20033;-66
2023/07/16 21:36:49;;;;;;;9.73;2.08;;;;;;;15.81;100.00;101361.03;10417850;28;20033;-66
2023/07/16 21:41:49;;;;;;;5.43;1.63;;;;;;;15.77;100.00;101359.09;10452743;28;20563;-66
2023/07/16 21:46:50;;;;;;;7.28;1.67;;;;;;;15.76;100.00;101352.72;10435742;28;20059;-66
2023/07/16 21:51:54;;;;;;;9.98;1.92;;;;;;;15.74;100.00;101357.72;10442520;28;20049;-66
2023/07/16 21:56:54;;;;;;;10.73;1.75;;;;;;;15.78;100.00;101358.00;10452265;28;20029;-66
2023/07/16 22:01:55;;;;;;;6.65;1.73;;;;;;;15.84;100.00;101357.72;10400291;28;20040;-66
2023/07/16 22:06:56;;;;;;;10.90;2.78;;;;;;;15.85;100.00;101356.59;10415181;28;20267;-66
2023/07/16 22:11:57;;;;;;;6.97;1.60;;;;;;;15.86;100.00;101355.50;10442139;28;20041;-66
2023/07/16 22:16:57;;;;;;;4.28;1.77;;;;;;;15.90;100.00;101353.84;10460936;28;20347;-66
2023/07/16 22:21:57;;;;;;;15.05;2.72;;;;;;;15.97;100.00;101344.41;10460206;28;20044;-66
2023/07/16 22:26:58;;;;;;;7.63;1.85;;;;;;;15.98;100.00;101348.81;10460143;28;20057;-66
2023/07/16 22:31:58;;;;;;;6.63;2.22;;;;;;;16.02;100.00;101345.22;10458988;28;20476;-67
2023/07/16 22:36:59;;;;;;;10.30;2.10;;;;;;;16.06;100.00;101334.38;10421727;28;20041;-66
2023/07/16 22:41:59;;;;;;;8.40;2.53;;;;;;;16.07;100.00;101320.22;10458364;28;20037;-66
2023/07/16 22:47:00;;;;;;;6.57;2.50;;;;;;;16.05;100.00;101299.41;10442206;28;20045;-65